Time;durP1;ratioP1;P1;durP2;ratioP2;P2;SDS_P1;SDS_P2;PMS_P1;PMS_P2;Temp;Humidity;BMP_temperature;BMP_pressure;BME280_temperature;BME280_humidity;BME280_pressure;Samples;Min_cycle;Max_cycle;Signal;HPM_P1;HPM_P2
2023/05/13 00:00:37;;;;;;;;;1.00;0.33;;;;;13.84;73.86;100726.88;5077988;28;45800;-67
2023/05/13 00:03:02;;;;;;;;;2.00;1.00;;;;;13.77;73.53;100723.25;5077579;27;45381;-68
2023/05/13 00:05:28;;;;;;;;;0.67;0.67;;;;;13.76;74.27;100731.09;5072303;28;45646;-67
2023/05/13 00:07:54;;;;;;;;;1.00;1.00;;;;;13.75;72.25;100724.06;5076897;28;45480;-67
2023/05/13 00:10:20;;;;;;;;;1.00;1.00;;;;;13.61;72.87;100710.66;5077323;28;45485;-68
2023/05/13 00:12:46;;;;;;;;;1.00;1.00;;;;;13.56;73.67;100713.19;5077125;28;45546;-67
2023/05/13 00:15:11;;;;;;;;;1.00;1.00;;;;;13.63;73.71;100717.72;5077687;28;45569;-67
2023/05/13 00:17:37;;;;;;;;;1.00;1.00;;;;;13.58;73.95;100706.22;5077623;28;46211;-68
2023/05/13 00:20:03;;;;;;;;;1.00;1.00;;;;;13.70;73.89;100719.59;5075191;28;45323;-67
2023/05/13 00:22:29;;;;;;;;;1.00;1.00;;;;;13.67;73.92;100703.81;5072735;28;45338;-67
2023/05/13 00:24:54;;;;;;;;;1.00;1.00;;;;;13.65;73.68;100702.00;5073843;28;45512;-67
2023/05/13 00:27:20;;;;;;;;;0.00;0.00;;;;;13.76;74.07;100707.47;5075476;28;45362;-67
2023/05/13 00:29:45;;;;;;;;;1.00;1.00;;;;;13.74;73.97;100702.16;5076830;28;45700;-68
2023/05/13 00:32:11;;;;;;;;;1.00;1.00;;;;;13.79;73.68;100710.16;5075852;28;45475;-67
2023/05/13 00:34:36;;;;;;;;;1.00;1.00;;;;;13.70;74.33;100702.97;5065614;28;45412;-67
2023/05/13 00:37:02;;;;;;;;;1.00;1.00;;;;;13.47;73.85;100681.53;5076174;28;45632;-67
2023/05/13 00:39:27;;;;;;;;;1.67;1.00;;;;;13.69;73.81;100714.34;5076765;28;45475;-68
2023/05/13 00:41:53;;;;;;;;;1.67;1.00;;;;;13.67;73.99;100709.06;5075935;28;45564;-67
2023/05/13 00:44:19;;;;;;;;;1.00;1.00;;;;;13.63;74.37;100701.09;5076703;28;45476;-67
2023/05/13 00:46:45;;;;;;;;;1.00;0.00;;;;;13.68;75.06;100713.44;5076524;28;45479;-67
2023/05/13 00:49:10;;;;;;;;;0.33;0.33;;;;;13.50;74.24;100671.06;5076630;27;45526;-67
2023/05/13 00:51:36;;;;;;;;;1.00;1.00;;;;;13.63;74.37;100704.59;5075254;28;45496;-67
2023/05/13 00:54:03;;;;;;;;;2.00;2.00;;;;;13.55;74.73;100689.53;5076636;28;45774;-67
2023/05/13 00:56:28;;;;;;;;;1.00;1.00;;;;;13.64;74.47;100689.72;5076827;28;45740;-68
2023/05/13 00:58:54;;;;;;;;;1.00;1.00;;;;;13.61;74.78;100671.28;5075957;28;45343;-67
2023/05/13 01:01:29;;;;;;;;;1.00;1.00;;;;;13.78;74.44;100695.25;5076226;28;45544;-67
2023/05/13 01:04:14;;;;;;;;;1.67;1.67;;;;;13.77;75.20;100693.47;5076591;28;45394;-67
2023/05/13 01:07:11;;;;;;;;;1.00;1.00;;;;;13.64;74.71;100689.72;5069023;28;45384;-67
2023/05/13 01:10:14;;;;;;;;;1.00;0.00;;;;;13.64;74.29;100681.84;5073036;28;45425;-67
2023/05/13 01:12:45;;;;;;;;;1.00;1.00;;;;;13.61;73.69;100689.66;5076694;28;45386;-67
2023/05/13 01:15:20;;;;;;;;;1.00;1.00;;;;;13.45;74.31;100676.25;5068593;28;45504;-67
2023/05/13 01:17:51;;;;;;;;;1.33;1.33;;;;;13.49;75.74;100691.19;5075889;28;46043;-67
2023/05/13 01:20:21;;;;;;;;;1.00;1.00;;;;;13.44;75.52;100682.31;5075683;27;46409;-67
2023/05/13 01:22:47;;;;;;;;;2.00;1.00;;;;;13.52;74.56;100686.00;5068202;28;45461;-67
2023/05/13 01:25:12;;;;;;;;;2.33;1.00;;;;;13.47;75.57;100681.53;5076019;28;45412;-67
2023/05/13 01:27:38;;;;;;;;;1.00;1.00;;;;;13.44;74.27;100673.59;5076869;28;45464;-67
2023/05/13 01:30:05;;;;;;;;;1.00;1.00;;;;;13.33;75.19;100661.13;5075634;28;45444;-67
2023/05/13 01:32:32;;;;;;;;;1.00;1.00;;;;;13.42;74.86;100677.91;5076025;28;45449;-67
2023/05/13 01:34:59;;;;;;;;;1.00;1.00;;;;;13.30;74.66;100647.94;5074686;27;45425;-67
2023/05/13 01:37:25;;;;;;;;;1.00;1.00;;;;;13.35;74.87;100644.53;5076649;28;46506;-68
2023/05/13 01:39:50;;;;;;;;;1.00;1.00;;;;;13.44;75.99;100671.84;5076666;27;45432;-67
2023/05/13 01:42:16;;;;;;;;;2.00;2.00;;;;;13.45;75.51;100662.22;5076001;28;45392;-68
2023/05/13 01:44:41;;;;;;;;;1.00;1.00;;;;;13.49;75.67;100664.94;5077045;27;45796;-68
2023/05/13 01:47:07;;;;;;;;;1.00;1.00;;;;;13.58;75.43;100685.22;5077268;28;46327;-67
2023/05/13 01:49:33;;;;;;;;;1.00;1.00;;;;;13.65;74.38;100679.25;5072356;27;45313;-67
2023/05/13 01:51:58;;;;;;;;;1.00;1.00;;;;;13.58;74.99;100666.84;5077569;27;45503;-68
2023/05/13 01:54:24;;;;;;;;;1.00;1.00;;;;;13.64;75.40;100674.84;5077487;28;45496;-67
2023/05/13 01:56:50;;;;;;;;;1.00;1.00;;;;;13.67;75.56;100667.06;5076132;27;47449;-68
2023/05/13 01:59:15;;;;;;;;;1.00;1.00;;;;;13.77;75.74;100669.81;5077565;28;45335;-68
2023/05/13 02:01:41;;;;;;;;;2.00;2.00;;;;;13.73;74.75;100655.78;5077956;28;45393;-67
2023/05/13 02:04:07;;;;;;;;;1.00;1.00;;;;;13.83;74.37;100676.09;5076399;28;45656;-67
2023/05/13 02:06:32;;;;;;;;;0.67;0.67;;;;;13.71;74.61;100644.38;5077438;28;45447;-67
2023/05/13 02:08:58;;;;;;;;;1.00;1.00;;;;;13.72;74.79;100652.25;5076843;28;45529;-67
2023/05/13 02:11:23;;;;;;;;;0.00;0.00;;;;;13.68;75.11;100653.06;5077707;28;45281;-68
2023/05/13 02:13:49;;;;;;;;;1.00;1.00;;;;;13.73;74.98;100664.53;5076493;28;45646;-67
2023/05/13 02:16:19;;;;;;;;;1.00;1.00;;;;;13.68;74.72;100663.56;5075054;28;45640;-68
2023/05/13 02:18:45;;;;;;;;;1.00;0.00;;;;;13.55;75.89;100671.16;5077347;28;45274;-67
2023/05/13 02:21:10;;;;;;;;;2.00;1.00;;;;;13.49;76.87;100680.69;5077225;27;45491;-67
2023/05/13 02:23:36;;;;;;;;;1.00;1.00;;;;;13.51;76.77;100680.75;5077146;28;45524;-68
2023/05/13 02:26:02;;;;;;;;;1.00;1.00;;;;;13.42;76.16;100644.69;5076429;28;45428;-67
2023/05/13 02:28:28;;;;;;;;;1.00;1.00;;;;;13.61;75.94;100671.28;5077148;28;45431;-67
2023/05/13 02:30:54;;;;;;;;;2.00;2.00;;;;;13.68;75.29;100674.06;5080000;28;45687;-68
2023/05/13 02:33:19;;;;;;;;;1.00;1.00;;;;;13.52;76.18;100683.38;5080885;28;45315;-67
2023/05/13 02:35:45;;;;;;;;;2.33;2.00;;;;;13.45;75.59;100670.09;5080345;28;46464;-67
2023/05/13 02:38:10;;;;;;;;;1.00;1.00;;;;;13.59;75.08;100689.66;5080809;28;45328;-67
2023/05/13 02:40:36;;;;;;;;;2.00;2.00;;;;;13.53;75.58;100690.41;5080606;27;45453;-68
2023/05/13 02:43:03;;;;;;;;;1.75;1.75;;;;;13.63;76.37;100701.97;5080435;27;45356;-68
2023/05/13 02:45:28;;;;;;;;;1.00;1.00;;;;;13.55;76.74;100685.19;5077885;27;46978;-68
2023/05/13 02:47:54;;;;;;;;;2.00;2.00;;;;;13.55;76.64;100687.81;5078847;27;45487;-68
2023/05/13 02:50:20;;;;;;;;;0.75;0.75;;;;;13.57;76.78;100696.59;5079562;28;45524;-68
2023/05/13 02:52:46;;;;;;;;;3.33;1.33;;;;;13.50;75.14;100669.31;5079696;27;45493;-68
2023/05/13 02:55:11;;;;;;;;;3.00;2.00;;;;;13.55;76.63;100677.31;5079667;28;45455;-68
2023/05/13 02:57:37;;;;;;;;;1.33;1.00;;;;;13.72;76.20;100706.50;5079505;28;45582;-70
2023/05/13 03:00:04;;;;;;;;;0.67;0.67;;;;;13.70;74.47;100684.59;5079273;28;45267;-68
2023/05/13 03:02:31;;;;;;;;;1.67;1.33;;;;;13.79;76.16;100697.03;5079851;28;45402;-68
2023/05/13 03:04:57;;;;;;;;;1.67;1.00;;;;;13.71;75.36;100710.00;5079528;27;45365;-67
2023/05/13 03:07:23;;;;;;;;;1.00;1.00;;;;;13.76;75.61;100708.34;5079769;28;45941;-68
2023/05/13 03:09:48;;;;;;;;;1.50;1.00;;;;;13.62;75.68;100681.81;5080174;28;45446;-68
2023/05/13 03:12:14;;;;;;;;;2.00;1.00;;;;;13.76;75.74;100724.09;5080488;28;45397;-68
2023/05/13 03:14:41;;;;;;;;;2.00;2.00;;;;;13.71;74.97;100710.00;5079380;28;45496;-68
2023/05/13 03:17:07;;;;;;;;;2.00;1.00;;;;;13.63;75.24;100699.34;5072878;28;45481;-67
2023/05/13 03:19:34;;;;;;;;;1.00;1.00;;;;;13.70;75.42;100708.22;5084090;27;45587;-68
2023/05/13 03:22:00;;;;;;;;;1.00;1.00;;;;;13.78;75.24;100711.88;5079565;28;45427;-68
2023/05/13 03:24:26;;;;;;;;;1.67;1.67;;;;;13.73;75.92;100722.28;5078086;28;45719;-68
2023/05/13 03:26:51;;;;;;;;;1.00;1.00;;;;;13.77;75.91;100731.13;5079275;28;45366;-68
2023/05/13 03:29:17;;;;;;;;;2.25;2.00;;;;;13.60;75.50;100701.91;5078436;27;45469;-68
2023/05/13 03:31:42;;;;;;;;;1.00;1.00;;;;;13.56;76.49;100704.44;5066253;27;45382;-68
2023/05/13 03:34:08;;;;;;;;;1.00;1.00;;;;;13.53;75.49;100694.78;5075989;28;45986;-68
2023/05/13 03:36:33;;;;;;;;;2.00;2.00;;;;;13.61;74.98;100711.56;5079257;28;45187;-68
2023/05/13 03:38:59;;;;;;;;;2.00;1.00;;;;;13.51;75.11;100694.72;5079653;28;45289;-68
2023/05/13 03:41:24;;;;;;;;;1.00;1.00;;;;;13.56;75.63;100700.06;5079588;28;45303;-68
2023/05/13 03:43:50;;;;;;;;;0.33;0.33;;;;;13.46;75.36;100679.75;5077271;28;47244;-67
2023/05/13 03:46:15;;;;;;;;;1.00;1.00;;;;;13.40;75.29;100680.50;5079070;28;45508;-68
2023/05/13 03:48:41;;;;;;;;;1.00;1.00;;;;;13.43;76.46;100700.66;5079370;28;46220;-68
2023/05/13 03:51:07;;;;;;;;;1.00;1.00;;;;;13.49;76.87;100709.56;5078375;28;45321;-68
2023/05/13 03:53:32;;;;;;;;;2.00;1.00;;;;;13.43;76.50;100701.56;5077585;28;46322;-68
2023/05/13 03:55:58;;;;;;;;;0.00;0.00;;;;;12.89;76.09;100605.97;5077811;28;45578;-68
2023/05/13 03:58:23;;;;;;;;;2.00;1.00;;;;;13.44;76.53;100708.56;5077722;28;45740;-68
2023/05/13 04:00:49;;;;;;;;;1.00;1.00;;;;;13.42;76.39;100707.66;5079385;28;45918;-67
2023/05/13 04:03:16;;;;;;;;;0.67;0.67;;;;;13.53;76.09;100721.91;5078653;27;45359;-68
2023/05/13 04:05:42;;;;;;;;;0.67;0.67;;;;;13.38;75.92;100699.69;5078783;28;45558;-68
2023/05/13 04:08:07;;;;;;;;;2.00;2.00;;;;;13.39;75.44;100690.94;5077999;28;45330;-68
2023/05/13 04:10:33;;;;;;;;;1.00;1.00;;;;;13.54;75.49;100725.41;5078414;28;45362;-67
2023/05/13 04:12:59;;;;;;;;;0.00;0.00;;;;;13.51;76.54;100731.47;5078065;28;45419;-69
2023/05/13 04:15:24;;;;;;;;;1.75;1.75;;;;;13.43;76.41;100713.78;5078358;28;45803;-67
2023/05/13 04:17:51;;;;;;;;;1.25;0.75;;;;;13.38;76.84;100697.94;5078340;28;46077;-67
2023/05/13 04:20:17;;;;;;;;;2.67;1.67;;;;;13.37;77.02;100696.19;5078102;28;45541;-67
2023/05/13 04:22:42;;;;;;;;;2.00;1.67;;;;;13.36;77.33;100704.91;5076981;28;45962;-67
2023/05/13 04:25:08;;;;;;;;;2.00;2.00;;;;;13.46;77.12;100712.09;5068567;28;45596;-67
2023/05/13 04:27:34;;;;;;;;;1.00;1.00;;;;;13.47;76.91;100705.16;5078114;28;45468;-68
2023/05/13 04:29:59;;;;;;;;;2.67;2.00;;;;;13.45;77.40;100707.72;5077924;28;45516;-67
2023/05/13 04:32:25;;;;;;;;;1.33;1.00;;;;;13.50;76.75;100713.06;5076803;28;47802;-68
2023/05/13 04:34:51;;;;;;;;;0.33;0.33;;;;;13.50;76.30;100710.44;5078351;28;45485;-68
2023/05/13 04:37:17;;;;;;;;;3.25;3.00;;;;;13.33;77.40;100713.59;5078555;28;45499;-68
2023/05/13 04:39:47;;;;;;;;;9.75;9.50;;;;;13.41;77.37;100733.84;5075680;27;45767;-68
2023/05/13 04:42:13;;;;;;;;;1.75;1.50;;;;;13.47;77.11;100736.66;5078109;28;45375;-67
2023/05/13 04:44:39;;;;;;;;;2.75;2.00;;;;;13.44;77.02;100739.19;5077988;27;45444;-67
2023/05/13 04:47:05;;;;;;;;;1.00;1.00;;;;;13.40;76.79;100725.09;5078101;27;45484;-68
2023/05/13 04:49:30;;;;;;;;;3.00;1.00;;;;;13.41;76.46;100716.41;5077813;28;45228;-68
2023/05/13 04:51:56;;;;;;;;;1.00;1.00;;;;;13.39;76.05;100706.69;5077258;28;45453;-68
2023/05/13 04:54:22;;;;;;;;;1.00;1.00;;;;;13.42;75.81;100726.03;5077126;28;45611;-69
2023/05/13 04:56:47;;;;;;;;;0.00;0.00;;;;;13.42;76.43;100743.50;5078269;28;45232;-68
2023/05/13 04:59:13;;;;;;;;;1.00;0.33;;;;;13.33;77.02;100738.97;5077688;28;45371;-70
2023/05/13 05:01:39;;;;;;;;;1.00;1.00;;;;;13.40;77.17;100750.47;5069525;28;46171;-69
2023/05/13 05:04:05;;;;;;;;;0.00;0.00;;;;;13.38;76.58;100732.06;5068708;28;45386;-68
2023/05/13 05:06:31;;;;;;;;;0.00;0.00;;;;;13.42;76.34;100723.41;5077546;27;45298;-69
2023/05/13 05:08:57;;;;;;;;;1.00;1.00;;;;;13.44;76.43;100724.31;5077405;28;45413;-69
2023/05/13 05:11:23;;;;;;;;;1.67;1.00;;;;;13.50;75.93;100736.69;5077819;28;46059;-69
2023/05/13 05:13:49;;;;;;;;;0.75;0.75;;;;;13.51;76.34;100744.59;5074596;28;45486;-68
2023/05/13 05:16:15;;;;;;;;;1.50;1.50;;;;;13.43;76.11;100737.41;5077608;28;45425;-69
2023/05/13 05:18:42;;;;;;;;;1.00;1.00;;;;;13.57;75.79;100749.09;5077277;28;45411;-69
2023/05/13 05:21:08;;;;;;;;;2.00;2.00;;;;;13.51;75.90;100734.09;5077413;28;46501;-69
2023/05/13 05:23:34;;;;;;;;;1.67;1.00;;;;;13.66;75.86;100749.28;5077094;27;45411;-69
2023/05/13 05:26:00;;;;;;;;;1.67;1.00;;;;;13.68;74.94;100746.69;5076585;28;45817;-68
2023/05/13 05:28:25;;;;;;;;;1.00;1.00;;;;;13.70;75.66;100761.59;5077071;28;45350;-69
2023/05/13 05:30:51;;;;;;;;;1.00;1.00;;;;;13.63;75.23;100759.72;5077522;28;45511;-68
2023/05/13 05:33:17;;;;;;;;;6.00;6.00;;;;;13.66;75.97;100766.78;5075982;28;45682;-68
2023/05/13 05:35:43;;;;;;;;;16.75;15.00;;;;;13.77;75.92;100777.47;5077048;28;45621;-69
2023/05/13 05:38:10;;;;;;;;;22.00;20.50;;;;;13.77;76.06;100762.63;5075524;28;46145;-69
2023/05/13 05:40:41;;;;;;;;;10.00;9.50;;;;;13.82;74.87;100767.97;5076934;28;45549;-70
2023/05/13 05:43:07;;;;;;;;;1.00;1.00;;;;;13.70;75.13;100748.47;5076305;27;45396;-69
2023/05/13 05:45:37;;;;;;;;;2.00;1.00;;;;;13.80;73.41;100782.81;5075914;28;45533;-68
2023/05/13 05:48:03;;;;;;;;;3.00;3.00;;;;;13.57;73.38;100754.34;5076358;28;45528;-69
2023/05/13 05:50:28;;;;;;;;;3.33;3.00;;;;;13.79;73.73;100771.44;5074907;27;45464;-69
2023/05/13 05:52:54;;;;;;;;;1.00;1.00;;;;;13.82;73.11;100754.84;5075978;27;45411;-68
2023/05/13 05:55:20;;;;;;;;;1.00;1.00;;;;;13.96;72.79;100758.63;5075873;27;45384;-68
2023/05/13 05:57:46;;;;;;;;;0.00;0.00;;;;;13.97;71.56;100751.66;5074896;28;45811;-67
2023/05/13 06:00:12;;;;;;;;;0.00;0.00;;;;;14.00;70.94;100767.44;5073028;28;45901;-68
2023/05/13 06:02:37;;;;;;;;;1.00;1.00;;;;;13.96;71.00;100766.50;5075724;28;45429;-67
2023/05/13 06:05:03;;;;;;;;;3.75;3.50;;;;;13.84;71.12;100761.88;5074492;28;45411;-67
2023/05/13 06:07:29;;;;;;;;;7.75;7.75;;;;;13.73;73.04;100774.81;5076224;27;45429;-68
2023/05/13 06:09:54;;;;;;;;;4.00;4.00;;;;;13.81;73.35;100789.84;5075700;28;46109;-69
2023/05/13 06:12:21;;;;;;;;;18.00;17.75;;;;;13.71;73.76;100781.78;5075126;28;45583;-69
2023/05/13 06:14:48;;;;;;;;;4.75;4.00;;;;;13.68;74.59;100793.94;5075150;28;45558;-68
2023/05/13 06:17:13;;;;;;;;;7.00;7.00;;;;;13.60;74.63;100785.00;5073136;28;45546;-67
2023/05/13 06:19:41;;;;;;;;;1.00;1.00;;;;;13.54;73.47;100798.88;5078118;27;45815;-67
2023/05/13 06:22:07;;;;;;;;;0.00;0.00;;;;;13.57;73.60;100790.19;5080805;27;45554;-70
2023/05/13 06:24:33;;;;;;;;;0.00;0.00;;;;;13.63;73.39;100791.22;5078092;27;45445;-68
2023/05/13 06:26:58;;;;;;;;;0.33;0.33;;;;;13.64;72.70;100778.97;5084344;27;45511;-68
2023/05/13 06:29:24;;;;;;;;;0.00;0.00;;;;;13.69;72.47;100787.84;5086098;27;45565;-68
2023/05/13 06:31:49;;;;;;;;;1.67;1.00;;;;;13.62;72.88;100775.44;5079269;27;45498;-69
2023/05/13 06:34:15;;;;;;;;;1.67;1.00;;;;;13.64;72.25;100774.59;5083607;27;45500;-68
2023/05/13 06:36:42;;;;;;;;;1.00;1.00;;;;;13.69;72.68;100783.47;5081969;27;45455;-66
2023/05/13 06:39:09;;;;;;;;;1.00;1.00;;;;;13.71;72.60;100796.66;5077493;27;46134;-68
2023/05/13 06:41:35;;;;;;;;;1.00;1.00;;;;;13.67;73.11;100797.44;5079423;27;45503;-68
2023/05/13 06:44:00;;;;;;;;;1.33;0.67;;;;;13.62;73.15;100796.44;5078669;27;45326;-69
2023/05/13 06:46:26;;;;;;;;;0.67;0.67;;;;;13.59;72.95;100786.75;5080273;27;45548;-68
2023/05/13 06:48:52;;;;;;;;;1.00;1.00;;;;;13.52;72.84;100761.22;5090038;27;46394;-69
2023/05/13 06:51:18;;;;;;;;;1.00;1.00;;;;;13.79;72.28;100796.81;5075880;28;45421;-68
2023/05/13 06:53:43;;;;;;;;;1.00;1.00;;;;;13.87;71.95;100798.72;5074615;28;45414;-68
2023/05/13 06:56:09;;;;;;;;;1.00;1.00;;;;;13.82;71.86;100773.22;5059249;28;45362;-70
2023/05/13 06:58:34;;;;;;;;;2.00;1.33;;;;;14.03;71.97;100799.91;5075251;27;45573;-71
2023/05/13 07:01:00;;;;;;;;;0.00;0.00;;;;;14.02;71.41;100776.25;5075471;28;45318;-69
2023/05/13 07:03:26;;;;;;;;;0.00;0.00;;;;;14.33;70.68;100806.63;5075892;28;45368;-68
2023/05/13 07:05:51;;;;;;;;;1.00;0.00;;;;;14.44;70.33;100799.84;5059475;28;45572;-69
2023/05/13 07:08:17;;;;;;;;;0.00;0.00;;;;;14.50;69.85;100783.25;5074598;28;45685;-69
2023/05/13 07:10:43;;;;;;;;;0.00;0.00;;;;;14.55;69.79;100784.25;5074273;28;45461;-70
2023/05/13 07:13:10;;;;;;;;;1.00;0.00;;;;;14.59;70.12;100787.84;5075554;28;45585;-71
2023/05/13 07:15:35;;;;;;;;;2.00;2.00;;;;;14.68;70.83;100803.75;5077210;28;45501;-71
2023/05/13 07:18:01;;;;;;;;;2.00;2.00;;;;;14.70;70.24;100797.69;5078152;28;45458;-68
2023/05/13 07:20:26;;;;;;;;;3.00;3.00;;;;;14.52;70.56;100787.72;5078986;28;45323;-70
2023/05/13 07:22:52;;;;;;;;;7.00;7.00;;;;;14.60;70.58;100826.41;5079079;28;45540;-69
2023/05/13 07:25:18;;;;;;;;;0.67;0.00;;;;;14.57;71.39;100821.13;5077167;27;45528;-71
2023/05/13 07:27:44;;;;;;;;;4.50;3.50;;;;;14.70;71.77;100825.72;5077342;28;45520;-72
2023/05/13 07:30:11;;;;;;;;;2.00;2.00;;;;;14.71;71.50;100809.09;5077185;28;45674;-69
2023/05/13 07:32:38;;;;;;;;;2.00;2.00;;;;;14.74;71.06;100803.88;5076438;28;45698;-70
2023/05/13 07:35:04;;;;;;;;;0.00;0.00;;;;;14.85;70.94;100833.00;5077935;27;45380;-71
2023/05/13 07:37:29;;;;;;;;;1.00;1.00;;;;;14.87;70.39;100826.91;5060993;28;46595;-70
2023/05/13 07:39:55;;;;;;;;;0.00;0.00;;;;;14.81;69.88;100804.88;5078316;28;45464;-70
2023/05/13 07:42:20;;;;;;;;;1.00;1.00;;;;;14.93;69.84;100836.63;5076988;28;45194;-69
2023/05/13 07:44:46;;;;;;;;;2.00;2.00;;;;;14.99;69.82;100822.72;5077691;28;45563;-70
2023/05/13 07:47:12;;;;;;;;;2.00;2.00;;;;;15.27;69.96;100824.91;5077144;28;46615;-68
2023/05/13 07:49:38;;;;;;;;;4.00;4.00;;;;;15.52;68.95;100810.34;5077398;28;45508;-70
2023/05/13 07:52:03;;;;;;;;;1.00;1.00;;;;;15.90;67.63;100814.41;5077754;27;45542;-70
2023/05/13 07:54:29;;;;;;;;;0.00;0.00;;;;;16.44;67.40;100794.78;5077669;28;45859;-70
2023/05/13 07:56:55;;;;;;;;;1.00;1.00;;;;;18.16;63.70;100807.41;5077713;28;45733;-70
2023/05/13 07:59:21;;;;;;;;;0.33;0.33;;;;;19.00;59.26;100804.91;5077695;28;45454;-68
2023/05/13 08:01:46;;;;;;;;;1.00;0.00;;;;;21.58;55.97;100813.22;5076138;28;45488;-71
2023/05/13 08:04:12;;;;;;;;;2.00;2.00;;;;;24.30;47.75;100783.81;5090746;27;45688;-70
2023/05/13 08:06:41;;;;;;;;;1.00;1.00;;;;;26.08;43.52;100798.81;5071911;28;45509;-69
2023/05/13 08:09:08;;;;;;;;;0.00;0.00;;;;;27.84;40.94;100785.75;5060153;28;45454;-70
2023/05/13 08:11:34;;;;;;;;;0.00;0.00;;;;;28.85;38.18;100783.53;5077704;28;45461;-69
2023/05/13 08:13:59;;;;;;;;;0.33;0.33;;;;;30.02;35.54;100789.13;5076864;28;45408;-71
2023/05/13 08:16:25;;;;;;;;;0.00;0.00;;;;;30.99;35.87;100801.47;5076923;28;46222;-70
2023/05/13 08:18:50;;;;;;;;;0.00;0.00;;;;;32.52;33.02;100786.00;5076921;27;45417;-69
2023/05/13 08:21:16;;;;;;;;;0.00;0.00;;;;;33.22;30.49;100791.81;5076838;27;45630;-69
2023/05/13 08:23:41;;;;;;;;;1.00;0.00;;;;;31.66;32.06;100778.19;5077561;28;45385;-68
2023/05/13 08:26:07;;;;;;;;;0.00;0.00;;;;;29.94;34.34;100789.50;5076233;28;45733;-68
2023/05/13 08:28:32;;;;;;;;;0.00;0.00;;;;;28.93;35.16;100794.84;5074893;28;45357;-69
2023/05/13 08:31:01;;;;;;;;;0.00;0.00;;;;;27.87;35.67;100804.41;5077983;28;45361;-71
2023/05/13 08:33:30;;;;;;;;;0.00;0.00;;;;;26.28;38.96;100814.25;5065086;28;45553;-70
2023/05/13 08:35:59;;;;;;;;;0.00;0.00;;;;;25.19;41.36;100832.44;5072950;28;45649;-72
2023/05/13 08:38:24;;;;;;;;;0.00;0.00;;;;;24.40;44.04;100828.09;5075977;28;45500;-69
2023/05/13 08:40:50;;;;;;;;;0.00;0.00;;;;;23.64;45.62;100822.56;5075814;28;45505;-69
2023/05/13 08:43:17;;;;;;;;;1.00;1.00;;;;;22.94;45.49;100822.00;5077553;28;45464;-70
2023/05/13 08:45:46;;;;;;;;;1.00;1.00;;;;;22.20;48.38;100796.47;5076674;28;46647;-71
2023/05/13 08:48:14;;;;;;;;;2.00;2.00;;;;;21.72;50.02;100821.03;5076859;28;45192;-70
2023/05/13 08:50:40;;;;;;;;;2.67;2.67;;;;;21.31;50.60;100818.78;5061486;28;45473;-71
2023/05/13 08:53:06;;;;;;;;;4.00;4.00;;;;;20.90;51.59;100842.16;5077097;27;45769;-71
2023/05/13 08:55:32;;;;;;;;;3.00;3.00;;;;;20.55;52.25;100840.63;5077870;28;46115;-70
2023/05/13 08:57:57;;;;;;;;;0.00;0.00;;;;;20.41;51.46;100837.16;5075656;27;45834;-68
2023/05/13 09:00:23;;;;;;;;;0.00;0.00;;;;;20.29;52.03;100847.84;5075886;28;45592;-69
2023/05/13 09:02:49;;;;;;;;;0.00;0.00;;;;;19.94;51.58;100852.44;5093090;27;45531;-68
2023/05/13 09:05:16;;;;;;;;;0.00;0.00;;;;;19.47;54.39;100859.56;5075676;28;45417;-69
2023/05/13 09:07:42;;;;;;;;;7.00;6.00;;;;;19.04;55.57;100869.34;5075765;27;45485;-69
2023/05/13 09:10:09;;;;;;;;;4.00;4.00;;;;;18.57;56.02;100856.88;5071161;28;45838;-70
2023/05/13 09:12:43;;;;;;;;;9.67;9.00;;;;;18.46;56.97;100876.25;5065085;28;45697;-70
2023/05/13 09:15:20;;;;;;;;;1.00;1.00;;;;;18.21;57.74;100885.88;5075008;28;46523;-69
2023/05/13 09:18:00;;;;;;;;;2.00;2.00;;;;;17.82;58.40;100897.09;5076075;28;45518;-70
2023/05/13 09:20:26;;;;;;;;;2.00;1.67;;;;;17.68;59.71;100897.00;5076569;28;45468;-70
2023/05/13 09:22:59;;;;;;;;;1.33;1.33;;;;;17.49;60.07;100877.53;5076495;28;45502;-70
2023/05/13 09:25:25;;;;;;;;;1.33;0.67;;;;;17.51;59.54;100883.69;5075634;28;46287;-69
2023/05/13 09:27:57;;;;;;;;;0.00;0.00;;;;;17.30;60.10;100890.56;5074326;28;45504;-69
2023/05/13 09:30:24;;;;;;;;;0.67;0.67;;;;;17.04;60.56;100877.16;5066763;28;45424;-69
2023/05/13 09:33:28;;;;;;;;;0.00;0.00;;;;;17.08;60.91;100891.28;5075414;28;45448;-70
2023/05/13 09:35:53;;;;;;;;;2.00;2.00;;;;;16.96;60.78;100870.94;5042980;27;46806;-69
2023/05/13 09:38:24;;;;;;;;;0.33;0.33;;;;;16.75;62.96;100892.69;5074288;28;45647;-69
2023/05/13 09:40:54;;;;;;;;;3.67;3.67;;;;;16.61;63.08;100895.19;5090113;27;45494;-70
2023/05/13 09:43:21;;;;;;;;;4.00;4.00;;;;;16.44;63.39;100881.81;5075349;28;45873;-70
2023/05/13 09:45:51;;;;;;;;;1.00;1.00;;;;;16.55;62.45;100884.53;5072918;28;47708;-69
2023/05/13 09:48:18;;;;;;;;;2.00;0.33;;;;;16.46;63.54;100892.38;5073472;28;45384;-70
2023/05/13 09:50:48;;;;;;;;;1.00;1.00;;;;;16.32;63.65;100886.94;5074447;28;45420;-70
2023/05/13 09:53:14;;;;;;;;;4.00;4.00;;;;;16.33;64.43;100883.41;5076099;28;45271;-69
2023/05/13 09:55:45;;;;;;;;;0.67;0.67;;;;;16.22;63.31;100827.06;5075778;28;46081;-70
2023/05/13 09:58:11;;;;;;;;;0.33;0.33;;;;;16.71;63.05;100880.31;5076101;28;45495;-69
2023/05/13 10:00:41;;;;;;;;;1.00;1.00;;;;;16.55;63.12;100859.94;5076534;27;45271;-69
2023/05/13 10:03:08;;;;;;;;;1.00;1.00;;;;;16.82;62.64;100891.91;5076075;28;45308;-70
2023/05/13 10:05:34;;;;;;;;;2.33;2.00;;;;;16.92;62.76;100877.06;5075374;28;47819;-70
2023/05/13 10:08:01;;;;;;;;;1.00;1.00;;;;;16.92;62.36;100852.44;5075811;27;45445;-70
2023/05/13 10:10:34;;;;;;;;;0.00;0.00;;;;;17.17;61.88;100875.53;5075129;28;45497;-70
2023/05/13 10:13:13;;;;;;;;;0.00;0.00;;;;;17.31;61.86;100870.34;5074430;28;46157;-70
2023/05/13 10:15:48;;;;;;;;;0.00;0.00;;;;;17.38;60.98;100864.22;5075200;28;45401;-69
2023/05/13 10:18:15;;;;;;;;;0.00;0.00;;;;;17.30;60.89;100872.09;5075430;28;45641;-70
2023/05/13 10:20:42;;;;;;;;;0.33;0.00;;;;;17.25;61.56;100868.53;5074561;28;45507;-68
2023/05/13 10:23:08;;;;;;;;;1.00;1.00;;;;;17.06;61.57;100851.66;5076677;28;45539;-69
2023/05/13 10:25:34;;;;;;;;;2.00;2.00;;;;;16.96;63.08;100863.00;5076744;27;46254;-70
2023/05/13 10:28:03;;;;;;;;;2.00;2.00;;;;;16.87;63.86;100878.75;5074970;27;45301;-68
2023/05/13 10:30:31;;;;;;;;;2.00;2.00;;;;;16.74;64.46;100875.09;5075597;28;45316;-69
2023/05/13 10:32:57;;;;;;;;;4.00;4.00;;;;;16.61;65.64;100858.28;5075692;28;45208;-70
2023/05/13 10:35:28;;;;;;;;;2.00;2.00;;;;;16.61;64.86;100867.91;5076699;28;46151;-69
2023/05/13 10:38:16;;;;;;;;;2.67;2.00;;;;;16.64;64.90;100874.09;5076739;28;45239;-68
2023/05/13 10:41:07;;;;;;;;;2.00;2.00;;;;;16.70;64.16;100871.53;5076831;28;45515;-69
2023/05/13 10:43:34;;;;;;;;;3.00;2.00;;;;;16.47;64.66;100850.22;5074022;28;45466;-69
2023/05/13 10:46:04;;;;;;;;;0.00;0.00;;;;;16.45;64.63;100849.31;5072823;27;46625;-70
2023/05/13 10:48:47;;;;;;;;;2.67;2.67;;;;;16.36;65.16;100869.41;5073363;28;45500;-69
2023/05/13 10:51:14;;;;;;;;;2.00;1.33;;;;;16.33;64.98;100872.88;5078020;28;45560;-69
2023/05/13 10:53:47;;;;;;;;;1.00;1.00;;;;;16.10;64.54;100833.09;5079545;28;45370;-69
2023/05/13 10:56:13;;;;;;;;;2.00;1.33;;;;;16.28;64.91;100870.19;5079033;27;45525;-70
2023/05/13 10:58:39;;;;;;;;;0.00;0.00;;;;;16.29;63.73;100858.81;5079174;28;45456;-69
2023/05/13 11:01:28;;;;;;;;;0.33;0.33;;;;;16.41;63.34;100863.34;5094643;27;45469;-70
2023/05/13 11:03:56;;;;;;;;;0.00;0.00;;;;;16.52;63.13;100866.06;5074984;28;45375;-70
2023/05/13 11:06:27;;;;;;;;;1.00;1.00;;;;;16.56;63.93;100872.28;5074550;28;45615;-68
2023/05/13 11:08:53;;;;;;;;;0.00;0.00;;;;;16.68;63.01;100859.19;5079036;28;45334;-69
2023/05/13 11:11:22;;;;;;;;;0.33;0.33;;;;;16.87;63.21;100858.53;5078863;28;45483;-69
2023/05/13 11:14:12;;;;;;;;;0.00;0.00;;;;;17.19;61.93;100852.66;5078686;28;45641;-69
2023/05/13 11:16:38;;;;;;;;;3.67;3.00;;;;;17.40;61.32;100845.75;5063790;28;45467;-69
2023/05/13 11:19:17;;;;;;;;;1.00;1.00;;;;;17.63;60.78;100838.00;5078518;28;45513;-68
2023/05/13 11:21:49;;;;;;;;;1.33;1.00;;;;;17.93;60.23;100841.69;5077443;28;45176;-69
2023/05/13 11:24:17;;;;;;;;;2.00;0.67;;;;;18.42;59.39;100842.75;5078866;28;45453;-69